Time;durP1;ratioP1;P1;durP2;ratioP2;P2;SDS_P1;SDS_P2;PMS_P1;PMS_P2;Temp;Humidity;BMP_temperature;BMP_pressure;BME280_temperature;BME280_humidity;BME280_pressure;Samples;Min_cycle;Max_cycle;Signal;HPM_P1;HPM_P2
2023/12/23 00:02:18;;;;;;;2.67;1.00;;;;;;;9.16;100.00;101333.59;5001832;28;20045;-76
2023/12/23 00:04:44;;;;;;;0.93;0.63;;;;;;;9.15;100.00;101336.44;4999354;28;20040;-77
2023/12/23 00:07:14;;;;;;;2.05;0.73;;;;;;;9.18;100.00;101330.75;4999462;28;20519;-76
2023/12/23 00:09:41;;;;;;;2.85;1.20;;;;;;;9.23;100.00;101323.09;5017293;28;20120;-76
2023/12/23 00:12:08;;;;;;;4.05;0.90;;;;;;;9.20;100.00;101302.78;4999820;28;20033;-77
2023/12/23 00:14:38;;;;;;;0.68;0.50;;;;;;;9.26;100.00;101306.66;5016707;28;20061;-76
2023/12/23 00:17:07;;;;;;;0.50;0.50;;;;;;;9.27;100.00;101307.53;4999508;28;20037;-76
2023/12/23 00:19:32;;;;;;;1.80;1.10;;;;;;;9.34;100.00;101290.66;5001051;28;20124;-76
2023/12/23 00:22:05;;;;;;;3.97;0.90;;;;;;;9.35;100.00;101288.81;5016714;28;20033;-76
2023/12/23 00:24:31;;;;;;;0.90;0.85;;;;;;;9.28;100.00;101290.44;5034055;28;20478;-77
2023/12/23 00:27:00;;;;;;;2.97;0.90;;;;;;;9.17;100.00;101281.63;5017103;28;20104;-76
2023/12/23 00:29:29;;;;;;;0.70;0.65;;;;;;;9.10;100.00;101268.97;5001319;28;20563;-76
2023/12/23 00:31:57;;;;;;;2.50;1.02;;;;;;;9.03;100.00;101276.81;5018259;28;20092;-76
2023/12/23 00:34:23;;;;;;;4.28;0.98;;;;;;;8.99;100.00;101267.34;5001674;28;20487;-76
2023/12/23 00:36:54;;;;;;;2.17;0.75;;;;;;;8.96;100.00;101267.66;5001998;28;20033;-76
2023/12/23 00:39:20;;;;;;;3.08;1.05;;;;;;;9.05;100.00;101272.13;5001576;28;20041;-75
2023/12/23 00:41:45;;;;;;;4.40;1.20;;;;;;;9.10;100.00;101264.44;5033597;28;20116;-76
2023/12/23 00:44:12;;;;;;;4.65;0.90;;;;;;;9.15;100.00;101251.41;5033947;28;20454;-76
2023/12/23 00:46:39;;;;;;;4.80;0.98;;;;;;;9.24;100.00;101257.72;5000960;28;20045;-76
2023/12/23 00:49:09;;;;;;;0.80;0.52;;;;;;;9.30;100.00;101240.97;5001494;28;20092;-76
2023/12/23 00:51:35;;;;;;;4.85;0.82;;;;;;;9.36;100.00;101239.50;5002143;28;20048;-76
2023/12/23 00:54:02;;;;;;;1.45;0.88;;;;;;;9.34;100.00;101246.88;5001160;28;20037;-76
2023/12/23 00:56:27;;;;;;;0.47;0.47;;;;;;;9.35;100.00;101246.72;5033570;28;20041;-76
2023/12/23 00:58:54;;;;;;;1.88;0.88;;;;;;;9.29;100.00;101243.81;5001303;28;20055;-76
2023/12/23 01:01:19;;;;;;;3.88;0.98;;;;;;;9.16;100.00;101250.44;5032835;28;20036;-76
2023/12/23 01:03:45;;;;;;;1.83;0.70;;;;;;;9.07;100.00;101270.13;5033551;28;20025;-76
2023/12/23 01:06:14;;;;;;;0.65;0.63;;;;;;;8.96;100.00;101251.56;5017077;28;20476;-76
2023/12/23 01:08:39;;;;;;;2.80;0.95;;;;;;;8.91;100.00;101252.03;5001368;28;20037;-76
2023/12/23 01:11:12;;;;;;;2.13;0.98;;;;;;;8.87;100.00;101260.56;5000426;28;20107;-76
2023/12/23 01:13:37;;;;;;;0.88;0.77;;;;;;;8.81;100.00;101243.22;5000739;28;20399;-77
2023/12/23 01:16:06;;;;;;;1.30;1.00;;;;;;;8.70;100.00;101238.06;5033297;28;20104;-76
2023/12/23 01:18:36;;;;;;;2.53;0.75;;;;;;;8.59;100.00;101221.22;5001112;28;20036;-76
2023/12/23 01:21:09;;;;;;;2.28;1.17;;;;;;;8.46;100.00;101226.09;5016831;28;20033;-76
2023/12/23 01:23:37;;;;;;;3.07;0.77;;;;;;;8.41;100.00;101228.38;5017523;28;20033;-75
2023/12/23 01:26:08;;;;;;;6.43;1.60;;;;;;;8.48;100.00;101221.44;5017009;28;20060;-76
2023/12/23 01:28:37;;;;;;;2.65;0.85;;;;;;;8.62;100.00;101214.69;5001030;28;20044;-75
2023/12/23 01:31:08;;;;;;;1.55;0.90;;;;;;;8.75;100.00;101225.91;5000932;28;20069;-76
2023/12/23 01:33:35;;;;;;;3.85;0.77;;;;;;;8.83;100.00;101217.09;5031830;28;20029;-78
2023/12/23 01:36:05;;;;;;;3.15;1.10;;;;;;;8.90;100.00;101209.28;5032968;28;20545;-76
2023/12/23 01:38:35;;;;;;;14.13;1.90;;;;;;;8.94;100.00;101207.97;5033003;28;20026;-77
2023/12/23 01:41:01;;;;;;;8.25;1.65;;;;;;;8.94;100.00;101210.66;5032855;28;20031;-76
2023/12/23 01:43:27;;;;;;;6.25;1.10;;;;;;;8.94;100.00;101210.66;5000027;28;20034;-75
2023/12/23 01:45:58;;;;;;;3.78;1.35;;;;;;;8.92;100.00;101218.03;5000559;28;20040;-76
2023/12/23 01:48:28;;;;;;;1.63;1.08;;;;;;;8.98;100.00;101212.03;5016830;28;20553;-76
2023/12/23 01:50:58;;;;;;;1.30;0.90;;;;;;;9.04;100.00;101198.00;5032664;28;20144;-76
2023/12/23 01:53:27;;;;;;;3.08;0.65;;;;;;;9.07;100.00;101202.22;5000410;28;20034;-75
2023/12/23 01:55:54;;;;;;;6.95;1.17;;;;;;;9.06;100.00;101197.84;5016134;28;20468;-77
2023/12/23 01:58:23;;;;;;;3.45;0.80;;;;;;;8.95;100.00;101178.31;4999699;28;20049;-76
2023/12/23 02:00:50;;;;;;;3.17;1.45;;;;;;;8.94;100.00;101203.44;5012959;28;20056;-75
2023/12/23 02:03:19;;;;;;;3.38;0.80;;;;;;;8.78;100.00;101196.09;5000439;28;20029;-76
2023/12/23 02:05:56;;;;;;;1.63;0.70;;;;;;;8.57;100.00;101199.09;5029810;28;20068;-76
2023/12/23 02:08:21;;;;;;;2.53;0.88;;;;;;;8.49;100.00;101207.03;4999296;28;20044;-76
2023/12/23 02:10:59;;;;;;;2.92;0.68;;;;;;;8.46;100.00;101206.50;4999943;28;20038;-76
2023/12/23 02:13:28;;;;;;;0.90;0.60;;;;;;;8.45;100.00;101212.88;5032470;28;20038;-76
2023/12/23 02:15:54;;;;;;;1.92;0.65;;;;;;;8.45;100.00;101213.69;5016322;28;20029;-76
2023/12/23 02:18:22;;;;;;;0.95;0.50;;;;;;;8.49;100.00;101211.53;4999814;28;20037;-76
2023/12/23 02:20:49;;;;;;;4.32;0.93;;;;;;;8.50;100.00;101219.44;4999242;28;20406;-76
2023/12/23 02:23:18;;;;;;;2.97;1.10;;;;;;;8.53;100.00;101207.59;4983627;28;20091;-76
2023/12/23 02:26:00;;;;;;;4.07;0.95;;;;;;;8.55;100.00;101205.59;5016186;28;20038;-76
2023/12/23 02:28:29;;;;;;;3.45;1.20;;;;;;;8.58;100.00;101199.94;4985323;28;20071;-76
2023/12/23 02:31:01;;;;;;;7.57;1.02;;;;;;;8.62;100.00;101198.63;5000322;28;20037;-76
2023/12/23 02:33:27;;;;;;;6.65;1.10;;;;;;;8.64;100.00;101185.06;5016149;28;20052;-76
2023/12/23 02:35:54;;;;;;;4.50;0.98;;;;;;;8.71;100.00;101199.56;4999406;28;20048;-76
2023/12/23 02:38:21;;;;;;;5.18;1.13;;;;;;;8.78;100.00;101192.56;5033134;28;20033;-75
2023/12/23 02:40:47;;;;;;;7.70;1.40;;;;;;;8.86;100.00;101210.59;4999364;28;20544;-76
2023/12/23 02:43:14;;;;;;;6.43;1.48;;;;;;;8.87;100.00;101209.59;4999249;28;20064;-76
2023/12/23 02:45:40;;;;;;;5.32;0.93;;;;;;;8.87;100.00;101214.97;5004986;28;20095;-75
2023/12/23 02:48:11;;;;;;;4.53;0.80;;;;;;;8.87;100.00;101214.97;5038581;28;20044;-76
2023/12/23 02:50:41;;;;;;;11.18;2.10;;;;;;;8.88;100.00;101213.97;5022210;28;20064;-75
2023/12/23 02:53:09;;;;;;;6.75;1.48;;;;;;;8.91;100.00;101211.78;5022327;28;20060;-76
2023/12/23 02:55:36;;;;;;;8.27;1.50;;;;;;;9.00;100.00;101210.88;5022192;28;20026;-76
2023/12/23 02:58:04;;;;;;;5.10;1.25;;;;;;;9.04;100.00;101211.41;5022423;28;20049;-77
2023/12/23 03:00:30;;;;;;;4.43;0.73;;;;;;;9.07;100.00;101211.09;5005094;28;20034;-78
2023/12/23 03:02:59;;;;;;;6.50;1.40;;;;;;;9.08;100.00;101223.53;5022401;28;20037;-76
2023/12/23 03:05:28;;;;;;;8.30;1.60;;;;;;;9.03;100.00;101209.75;5022797;28;20061;-76
2023/12/23 03:07:59;;;;;;;8.02;1.52;;;;;;;8.83;100.00;101217.09;5021538;28;20037;-75
2023/12/23 03:10:25;;;;;;;8.35;1.50;;;;;;;8.69;100.00;101217.63;5017920;28;20048;-75
2023/12/23 03:12:54;;;;;;;5.82;2.47;;;;;;;8.61;100.00;101205.00;5006313;28;20037;-76
2023/12/23 03:15:19;;;;;;;5.40;1.75;;;;;;;8.58;100.00;101216.84;5005189;28;20037;-76
2023/12/23 03:17:48;;;;;;;4.90;1.45;;;;;;;8.58;100.00;101216.03;5022480;28;20594;-75
2023/12/23 03:20:15;;;;;;;7.88;1.13;;;;;;;8.57;100.00;101203.59;5005671;28;20037;-76
2023/12/23 03:22:44;;;;;;;4.97;1.15;;;;;;;8.54;100.00;101201.22;5006757;28;20440;-75
2023/12/23 03:25:10;;;;;;;4.85;1.23;;;;;;;8.54;100.00;101201.22;5022139;28;20072;-76
2023/12/23 03:27:36;;;;;;;5.22;1.65;;;;;;;8.55;100.00;101201.09;5005316;28;20392;-77
2023/12/23 03:30:03;;;;;;;7.32;1.40;;;;;;;8.55;100.00;101187.69;5037965;28;20057;-76
2023/12/23 03:32:31;;;;;;;8.75;1.50;;;;;;;8.58;100.00;101190.06;5005562;28;20029;-76
2023/12/23 03:34:57;;;;;;;6.53;1.15;;;;;;;8.57;100.00;101184.84;5005156;28;20125;-76
2023/12/23 03:37:22;;;;;;;11.73;2.33;;;;;;;8.62;100.00;101179.84;5005789;28;20447;-76
2023/12/23 03:39:53;;;;;;;5.72;1.40;;;;;;;8.66;100.00;101177.72;5038194;28;20037;-76
2023/12/23 03:42:21;;;;;;;6.00;1.70;;;;;;;8.69;100.00;101172.91;5005516;28;20033;-75
2023/12/23 03:44:49;;;;;;;10.20;1.63;;;;;;;8.73;100.00;101171.59;5005549;28;20448;-76
2023/12/23 03:47:15;;;;;;;6.53;1.52;;;;;;;8.76;100.00;101165.94;5005503;28;20041;-75
2023/12/23 03:49:42;;;;;;;9.30;1.42;;;;;;;8.78;100.00;101163.91;5038033;28;20026;-75
2023/12/23 03:52:10;;;;;;;8.45;1.60;;;;;;;8.79;100.00;101151.38;5038275;28;20032;-76
2023/12/23 03:54:35;;;;;;;4.90;1.45;;;;;;;8.84;100.00;101148.22;5006186;28;20037;-76
2023/12/23 03:57:06;;;;;;;5.85;1.20;;;;;;;8.87;100.00;101151.44;5002110;28;20407;-75
2023/12/23 03:59:34;;;;;;;4.30;0.65;;;;;;;8.88;100.00;101139.72;5017980;28;20046;-75
2023/12/23 04:02:00;;;;;;;4.55;0.98;;;;;;;8.93;100.00;101140.09;5002172;28;20606;-75
2023/12/23 04:04:26;;;;;;;1.52;0.77;;;;;;;8.94;100.00;101132.88;5002621;28;20132;-75
2023/12/23 04:06:54;;;;;;;11.23;1.15;;;;;;;8.95;100.00;101131.91;5018603;28;20099;-75
2023/12/23 04:09:22;;;;;;;7.03;1.17;;;;;;;8.96;100.00;101155.03;5002198;28;20048;-75
2023/12/23 04:11:48;;;;;;;4.43;1.02;;;;;;;9.03;100.00;101148.88;5018714;28;20041;-75
2023/12/23 04:14:14;;;;;;;7.43;1.20;;;;;;;9.07;100.00;101149.41;5018066;28;20068;-75
2023/12/23 04:16:39;;;;;;;9.93;1.85;;;;;;;9.10;100.00;101146.41;5001111;28;20037;-75
2023/12/23 04:19:05;;;;;;;7.53;1.65;;;;;;;9.10;100.00;101148.25;5001787;28;20061;-75
2023/12/23 04:21:33;;;;;;;5.82;1.20;;;;;;;9.06;100.00;101152.25;5002344;28;20109;-78
2023/12/23 04:23:59;;;;;;;5.55;1.00;;;;;;;9.05;100.00;101151.41;5017873;28;20053;-77
2023/12/23 04:26:27;;;;;;;6.90;1.20;;;;;;;9.08;100.00;101152.94;5001850;28;20068;-77
2023/12/23 04:28:53;;;;;;;2.53;1.08;;;;;;;9.10;100.00;101149.09;5002304;28;20041;-77
2023/12/23 04:31:20;;;;;;;7.28;1.77;;;;;;;9.12;100.00;101144.41;5001950;28;20029;-76
2023/12/23 04:33:48;;;;;;;2.85;1.20;;;;;;;9.14;100.00;101129.00;5001869;28;20103;-76
2023/12/23 04:36:21;;;;;;;4.80;1.92;;;;;;;9.14;100.00;101129.00;5033666;28;20033;-77
2023/12/23 04:39:06;;;;;;;5.95;1.00;;;;;;;9.16;100.00;101128.88;5001862;28;20036;-77
2023/12/23 04:41:47;;;;;;;6.55;1.13;;;;;;;9.13;100.00;101132.69;5017491;28;20064;-76
2023/12/23 04:44:31;;;;;;;5.05;0.90;;;;;;;9.12;100.00;101120.25;5019925;28;20037;-76
2023/12/23 04:46:59;;;;;;;4.63;1.88;;;;;;;9.12;100.00;101117.59;5017934;28;20166;-76
2023/12/23 04:49:27;;;;;;;2.35;0.73;;;;;;;9.14;100.00;101117.44;5001623;28;20041;-77
2023/12/23 04:52:41;;;;;;;7.55;1.27;;;;;;;9.15;100.00;101114.59;5017464;28;20358;-77
2023/12/23 04:55:09;;;;;;;5.90;1.05;;;;;;;9.15;100.00;101111.06;5003688;28;20033;-76
2023/12/23 04:57:52;;;;;;;2.40;1.17;;;;;;;9.14;100.00;101101.34;5019711;28;20090;-76
2023/12/23 05:00:19;;;;;;;5.68;0.90;;;;;;;9.14;100.00;101102.19;5000778;28;20038;-79
2023/12/23 05:02:45;;;;;;;1.48;0.80;;;;;;;9.11;100.00;101101.66;5000944;28;20041;-77
2023/12/23 05:05:31;;;;;;;4.60;1.20;;;;;;;9.15;100.00;101094.97;5000855;28;20042;-77
2023/12/23 05:07:59;;;;;;;8.05;1.27;;;;;;;9.14;100.00;101095.97;5020655;28;20388;-79
2023/12/23 05:10:28;;;;;;;6.53;1.25;;;;;;;9.16;100.00;101092.13;5017103;28;20491;-76
2023/12/23 05:12:54;;;;;;;7.57;1.70;;;;;;;9.17;100.00;101092.97;5001136;28;20091;-78
2023/12/23 05:15:20;;;;;;;3.83;0.98;;;;;;;9.14;100.00;101094.13;5000760;28;20041;-77
2023/12/23 05:17:45;;;;;;;3.17;0.90;;;;;;;9.10;100.00;101081.19;5000905;28;20037;-77
2023/12/23 05:20:27;;;;;;;8.43;2.08;;;;;;;9.07;100.00;101079.66;5019046;28;20025;-76
2023/12/23 05:22:53;;;;;;;2.28;1.55;;;;;;;9.07;100.00;101082.34;5033074;28;20032;-76
2023/12/23 05:25:19;;;;;;;5.40;1.25;;;;;;;9.13;100.00;101091.59;5033009;28;20025;-76
2023/12/23 05:27:49;;;;;;;2.97;1.00;;;;;;;9.14;100.00;101072.66;5017503;28;20048;-76
2023/12/23 05:30:15;;;;;;;9.70;1.40;;;;;;;9.20;100.00;101077.38;5000748;28;20033;-76
2023/12/23 05:32:43;;;;;;;6.90;1.20;;;;;;;9.19;100.00;101073.03;5000520;28;20503;-76
2023/12/23 05:35:12;;;;;;;6.43;1.33;;;;;;;9.18;100.00;101083.91;5000980;28;20055;-76
2023/12/23 05:37:39;;;;;;;3.83;0.93;;;;;;;9.19;100.00;101070.34;5017027;28;20034;-77
2023/12/23 05:40:09;;;;;;;5.00;1.15;;;;;;;9.21;100.00;101071.03;5032567;28;20395;-76
2023/12/23 05:42:35;;;;;;;7.18;1.67;;;;;;;9.25;100.00;101060.81;5017457;28;20045;-77
2023/12/23 05:45:03;;;;;;;12.20;2.30;;;;;;;9.25;100.00;101069.69;5017106;28;20037;-77
2023/12/23 05:47:31;;;;;;;5.00;1.10;;;;;;;9.28;100.00;101062.34;5032572;28;20037;-77
2023/12/23 05:49:57;;;;;;;4.38;1.55;;;;;;;9.27;100.00;101066.03;5000079;28;20033;-76
2023/12/23 05:52:23;;;;;;;1.30;0.63;;;;;;;9.11;100.00;101062.25;5000560;28;20045;-77
2023/12/23 05:54:49;;;;;;;6.03;1.27;;;;;;;8.97;100.00;101068.19;5000119;28;20025;-77
2023/12/23 05:57:16;;;;;;;4.07;0.82;;;;;;;8.87;100.00;101070.16;5016941;28;20029;-77
2023/12/23 05:59:47;;;;;;;3.55;0.88;;;;;;;8.82;100.00;101067.09;5016183;28;20037;-77
2023/12/23 06:02:12;;;;;;;2.22;0.90;;;;;;;8.78;100.00;101067.38;4999845;28;20038;-77
2023/12/23 06:04:40;;;;;;;0.63;0.60;;;;;;;8.74;100.00;101063.34;5000324;28;20033;-77
2023/12/23 06:07:08;;;;;;;1.10;0.70;;;;;;;8.73;100.00;101068.84;5000433;28;20038;-77
2023/12/23 06:09:34;;;;;;;0.80;0.70;;;;;;;8.71;100.00;101065.53;4999798;28;20176;-76
2023/12/23 06:12:03;;;;;;;1.05;0.60;;;;;;;8.71;100.00;101061.00;5000078;28;20140;-77
2023/12/23 06:14:29;;;;;;;4.03;1.40;;;;;;;8.72;100.00;101057.31;5028001;28;20498;-77
2023/12/23 06:16:57;;;;;;;8.77;1.08;;;;;;;8.72;100.00;101053.78;5015839;28;20049;-77
2023/12/23 06:19:25;;;;;;;3.67;0.82;;;;;;;8.71;100.00;101055.63;5031587;28;20033;-77
2023/12/23 06:21:54;;;;;;;2.95;1.13;;;;;;;8.70;100.00;101045.06;4999422;28;20030;-77
2023/12/23 06:24:21;;;;;;;5.82;0.88;;;;;;;8.73;100.00;101053.63;5016157;28;20034;-77
2023/12/23 06:26:47;;;;;;;2.67;0.80;;;;;;;8.70;100.00;101045.88;5031892;28;20037;-77
2023/12/23 06:29:16;;;;;;;2.95;0.88;;;;;;;8.75;100.00;101035.53;4999471;28;20722;-77
2023/12/23 06:31:49;;;;;;;2.33;0.82;;;;;;;8.77;100.00;101027.34;5031943;28;20029;-77
2023/12/23 06:34:27;;;;;;;3.58;0.98;;;;;;;8.80;100.00;101037.75;5002941;28;20037;-77
2023/12/23 06:36:56;;;;;;;8.40;1.30;;;;;;;8.78;100.00;101029.00;5032192;28;20022;-77
2023/12/23 06:39:22;;;;;;;5.80;1.42;;;;;;;8.75;100.00;101030.19;4999357;28;20116;-77
2023/12/23 06:41:50;;;;;;;7.28;2.42;;;;;;;8.75;100.00;101014.09;5031884;28;20092;-78
2023/12/23 06:44:16;;;;;;;7.22;1.60;;;;;;;8.80;100.00;101013.63;5031629;28;20108;-77
2023/12/23 06:46:42;;;;;;;4.80;1.13;;;;;;;8.83;100.00;101018.66;4999261;28;20551;-77
2023/12/23 06:49:10;;;;;;;4.93;0.88;;;;;;;8.90;100.00;101016.19;5015725;28;20037;-76
2023/12/23 06:51:41;;;;;;;6.15;1.15;;;;;;;8.94;100.00;101014.88;5032262;28;20056;-77
2023/12/23 06:54:06;;;;;;;6.63;1.55;;;;;;;8.98;100.00;101019.78;4999558;28;20472;-76
2023/12/23 06:56:53;;;;;;;4.20;1.23;;;;;;;8.99;100.00;101007.19;4998863;28;20033;-76
2023/12/23 06:59:24;;;;;;;6.88;1.15;;;;;;;9.01;100.00;100998.00;5015290;28;20041;-76
2023/12/23 07:02:27;;;;;;;3.53;0.88;;;;;;;8.95;100.00;100998.63;5032501;28;20026;-77
2023/12/23 07:05:19;;;;;;;2.65;1.02;;;;;;;8.79;100.00;100999.38;5013081;28;20041;-76
2023/12/23 07:07:50;;;;;;;1.13;0.93;;;;;;;8.77;100.00;101003.22;4999132;28;20446;-77
2023/12/23 07:10:27;;;;;;;5.05;1.15;;;;;;;8.69;100.00;100995.97;5015446;28;20038;-77
2023/12/23 07:12:56;;;;;;;11.57;2.28;;;;;;;8.69;100.00;100993.28;5015414;28;20036;-77
2023/12/23 07:15:22;;;;;;;4.18;0.90;;;;;;;8.68;100.00;100994.28;4998612;28;20026;-79
2023/12/23 07:17:57;;;;;;;2.47;1.15;;;;;;;8.65;100.00;100993.75;5014720;28;20025;-77
2023/12/23 07:20:31;;;;;;;7.93;1.48;;;;;;;8.66;100.00;100987.41;5016169;28;20065;-77
2023/12/23 07:22:58;;;;;;;7.38;1.30;;;;;;;8.66;100.00;100987.41;5031392;28;20056;-77
2023/12/23 07:25:26;;;;;;;4.50;1.23;;;;;;;8.66;100.00;100992.75;5015586;28;20124;-77
2023/12/23 07:27:52;;;;;;;4.65;1.00;;;;;;;8.68;100.00;100980.03;5015083;28;20380;-77
2023/12/23 07:30:21;;;;;;;0.70;0.68;;;;;;;8.69;100.00;100985.25;5015610;28;20035;-77
2023/12/23 07:32:46;;;;;;;3.13;0.82;;;;;;;8.69;100.00;100979.88;5018291;28;20400;-77
2023/12/23 07:35:13;;;;;;;5.20;1.25;;;;;;;8.73;100.00;100975.91;5002864;28;20040;-77
2023/12/23 07:37:39;;;;;;;3.38;0.98;;;;;;;8.74;100.00;100977.56;5002469;28;20135;-78
2023/12/23 07:40:08;;;;;;;3.92;1.00;;;;;;;8.73;100.00;100978.56;5018472;28;20037;-77
2023/12/23 07:42:37;;;;;;;5.90;0.93;;;;;;;8.75;100.00;100978.41;5018780;28;20412;-77
2023/12/23 07:45:02;;;;;;;3.53;0.73;;;;;;;8.77;100.00;100984.44;5003083;28;20037;-77
2023/12/23 07:47:30;;;;;;;6.22;1.17;;;;;;;8.78;100.00;100984.28;5034710;28;20037;-77
2023/12/23 07:49:56;;;;;;;4.00;1.45;;;;;;;8.79;100.00;100987.81;5018854;28;20490;-77
2023/12/23 07:52:23;;;;;;;6.93;1.35;;;;;;;8.78;100.00;100983.44;5019000;28;20037;-77
2023/12/23 07:54:51;;;;;;;2.63;0.90;;;;;;;8.78;100.00;100984.28;5002568;28;20179;-77
2023/12/23 07:57:17;;;;;;;4.10;0.70;;;;;;;8.78;100.00;100981.59;5002471;28;20495;-76
2023/12/23 07:59:44;;;;;;;4.97;1.02;;;;;;;8.80;100.00;100984.13;5019040;28;20037;-76
2023/12/23 08:02:11;;;;;;;3.28;0.80;;;;;;;8.80;100.00;100979.59;5035150;28;20594;-77
2023/12/23 08:04:40;;;;;;;3.78;1.20;;;;;;;8.81;100.00;100985.81;5018832;28;20060;-76
2023/12/23 08:07:06;;;;;;;6.68;1.23;;;;;;;8.82;100.00;100976.78;5002442;28;20034;-77
2023/12/23 08:09:34;;;;;;;1.17;0.43;;;;;;;8.79;100.00;100967.22;5034806;28;20033;-77
2023/12/23 08:12:04;;;;;;;3.60;0.85;;;;;;;8.82;100.00;100967.91;5018143;28;20377;-77
2023/12/23 08:14:30;;;;;;;2.20;0.88;;;;;;;8.83;100.00;100972.25;5018279;28;20476;-77
2023/12/23 08:16:56;;;;;;;10.63;1.48;;;;;;;8.84;100.00;100969.41;5002246;28;20123;-77
2023/12/23 08:19:22;;;;;;;3.78;0.82;;;;;;;8.85;100.00;100971.09;5001590;28;20499;-76
2023/12/23 08:21:47;;;;;;;4.88;1.30;;;;;;;8.86;100.00;100974.59;5035868;28;20030;-77
2023/12/23 08:24:13;;;;;;;4.45;0.90;;;;;;;8.85;100.00;100972.94;5001897;28;20136;-76
2023/12/23 08:26:42;;;;;;;10.05;1.20;;;;;;;8.86;100.00;100966.56;5034578;28;20115;-77
2023/12/23 08:29:14;;;;;;;9.00;2.30;;;;;;;8.89;100.00;100958.19;5001789;28;20073;-76
2023/12/23 08:31:44;;;;;;;6.00;1.00;;;;;;;8.90;100.00;100957.22;5002139;28;20044;-77
2023/12/23 08:34:09;;;;;;;4.00;1.00;;;;;;;8.92;100.00;100964.09;4985638;28;20041;-76
2023/12/23 08:36:35;;;;;;;0.40;0.40;;;;;;;8.90;100.00;100959.88;5018140;28;20096;-76
2023/12/23 08:39:01;;;;;;;3.13;0.63;;;;;;;8.90;100.00;100962.56;5017264;28;20480;-78
2023/12/23 08:41:30;;;;;;;3.33;1.20;;;;;;;8.89;100.00;100950.16;5002088;28;20079;-77
2023/12/23 08:43:58;;;;;;;5.07;1.00;;;;;;;8.88;100.00;100957.34;5001307;28;20122;-76
2023/12/23 08:46:27;;;;;;;2.22;1.00;;;;;;;8.90;100.00;100946.47;5001752;28;20050;-77
2023/12/23 08:48:52;;;;;;;0.47;0.47;;;;;;;8.88;100.00;100959.19;5017623;28;20052;-76
2023/12/23 08:51:18;;;;;;;1.33;0.60;;;;;;;8.87;100.00;100957.53;5001707;28;20128;-76
2023/12/23 08:53:46;;;;;;;1.83;0.85;;;;;;;8.88;100.00;100959.19;5001343;28;20348;-76
2023/12/23 08:56:12;;;;;;;1.92;0.82;;;;;;;8.89;100.00;100960.88;5002050;28;20456;-77
2023/12/23 08:58:44;;;;;;;0.98;0.88;;;;;;;8.90;100.00;100935.75;5017631;28;20116;-76
2023/12/23 09:01:15;;;;;;;1.00;0.70;;;;;;;8.90;100.00;100943.81;5033754;28;20052;-77
2023/12/23 09:03:43;;;;;;;0.50;0.50;;;;;;;8.92;100.00;100947.16;5001948;28;20067;-76
2023/12/23 09:06:11;;;;;;;1.65;0.68;;;;;;;8.92;100.00;100948.00;5017564;28;20041;-76
2023/12/23 09:08:42;;;;;;;5.28;1.17;;;;;;;8.91;100.00;100942.78;5033531;28;20531;-76
2023/12/23 09:11:08;;;;;;;3.45;0.98;;;;;;;8.91;100.00;100940.09;5013569;28;20034;-77
2023/12/23 09:13:34;;;;;;;1.85;0.60;;;;;;;8.93;100.00;100924.72;5017323;28;20034;-77
2023/12/23 09:16:05;;;;;;;0.93;0.63;;;;;;;8.95;100.00;100925.38;5017206;28;20522;-77
2023/12/23 09:18:31;;;;;;;2.33;0.98;;;;;;;8.96;100.00;100919.00;5016987;28;20029;-76
2023/12/23 09:20:57;;;;;;;1.45;0.73;;;;;;;8.94;100.00;100927.19;5000489;28;20392;-78
2023/12/23 09:23:22;;;;;;;1.55;1.15;;;;;;;8.95;100.00;100911.97;5017004;28;20025;-77
2023/12/23 09:25:51;;;;;;;2.42;1.00;;;;;;;8.97;100.00;100926.03;4984245;28;20041;-76
2023/12/23 09:28:17;;;;;;;0.73;0.55;;;;;;;8.99;100.00;100927.56;5012251;28;20408;-76
2023/12/23 09:30:47;;;;;;;0.50;0.50;;;;;;;8.98;100.00;100923.22;5033093;28;20402;-76
2023/12/23 09:33:17;;;;;;;1.77;1.02;;;;;;;9.00;100.00;100915.03;5017519;28;20025;-75
2023/12/23 09:35:43;;;;;;;0.60;0.60;;;;;;;9.03;100.00;100917.38;5017475;28;20064;-75
2023/12/23 09:38:12;;;;;;;1.52;0.60;;;;;;;9.07;100.00;100915.19;5016827;28;20132;-75
2023/12/23 09:40:39;;;;;;;0.50;0.50;;;;;;;9.10;100.00;100914.88;5032423;28;20034;-76
2023/12/23 09:43:05;;;;;;;1.58;0.80;;;;;;;9.13;100.00;100918.09;5000658;28;20356;-75
2023/12/23 09:45:32;;;;;;;1.58;0.82;;;;;;;9.13;100.00;100910.03;5017109;28;20033;-76
2023/12/23 09:47:59;;;;;;;3.60;0.70;;;;;;;9.15;100.00;100907.19;5016709;28;20040;-75
2023/12/23 09:50:27;;;;;;;0.60;0.60;;;;;;;9.22;100.00;100910.91;5016551;28;20388;-75
2023/12/23 09:52:52;;;;;;;2.58;0.70;;;;;;;9.27;100.00;100902.38;5016770;28;20030;-76
2023/12/23 09:55:19;;;;;;;1.40;0.75;;;;;;;9.29;100.00;100911.94;5016049;28;20557;-76
2023/12/23 09:57:45;;;;;;;0.60;0.60;;;;;;;9.40;100.00;100910.78;5016412;28;20030;-77
2023/12/23 10:00:12;;;;;;;0.55;0.52;;;;;;;9.50;100.00;100911.47;5016614;28;20510;-75
2023/12/23 10:02:38;;;;;;;2.95;0.60;;;;;;;9.54;100.00;100910.13;5016502;28;20522;-76
2023/12/23 10:05:04;;;;;;;0.98;0.85;;;;;;;9.57;100.00;100912.47;5000035;28;20033;-76
2023/12/23 10:07:30;;;;;;;1.08;0.70;;;;;;;9.66;100.00;100905.28;5000342;28;20072;-76
2023/12/23 10:09:57;;;;;;;1.95;0.70;;;;;;;9.67;100.00;100907.78;5017199;28;20033;-75
2023/12/23 10:12:23;;;;;;;35.90;2.05;;;;;;;9.67;100.00;100907.78;5000352;28;20033;-76
2023/12/23 10:14:49;;;;;;;0.55;0.50;;;;;;;9.63;100.00;100905.59;5016147;28;20057;-76
2023/12/23 10:17:17;;;;;;;0.60;0.60;;;;;;;9.59;100.00;100902.41;5032414;28;20075;-76
2023/12/23 10:19:43;;;;;;;3.80;0.73;;;;;;;9.58;100.00;100899.88;4984009;28;20041;-76
2023/12/23 10:22:09;;;;;;;2.42;0.80;;;;;;;9.58;100.00;100891.81;5015937;28;20040;-76
2023/12/23 10:24:37;;;;;;;1.52;0.60;;;;;;;9.58;100.00;100892.69;5015904;28;20029;-76
2023/12/23 10:27:04;;;;;;;0.73;0.60;;;;;;;9.55;100.00;100889.47;4999837;28;20087;-76
2023/12/23 10:29:33;;;;;;;0.85;0.50;;;;;;;9.55;100.00;100898.41;5000259;28;20476;-76
2023/12/23 10:32:05;;;;;;;6.13;0.88;;;;;;;9.55;100.00;100897.53;4999944;28;20116;-76
2023/12/23 10:34:43;;;;;;;0.73;0.65;;;;;;;9.51;100.00;100896.22;5016218;28;20129;-75
2023/12/23 10:37:09;;;;;;;2.50;0.98;;;;;;;9.53;100.00;100905.78;5017257;28;20063;-76
2023/12/23 10:39:54;;;;;;;0.52;0.52;;;;;;;9.57;100.00;100893.69;4999745;28;20052;-76
2023/12/23 10:42:23;;;;;;;0.45;0.45;;;;;;;9.58;100.00;100895.38;4999620;28;20464;-76
2023/12/23 10:44:51;;;;;;;0.80;0.73;;;;;;;9.56;100.00;100894.69;5016341;28;20040;-76
2023/12/23 10:47:16;;;;;;;0.68;0.68;;;;;;;9.51;100.00;100885.47;5015239;28;20041;-80
2023/12/23 10:49:46;;;;;;;1.38;0.70;;;;;;;9.60;100.00;100890.66;5031637;28;20080;-78
2023/12/23 10:52:13;;;;;;;1.33;0.80;;;;;;;9.68;100.00;100881.78;5031949;28;20030;-78
2023/12/23 10:54:39;;;;;;;3.60;0.95;;;;;;;9.71;100.00;100867.19;4999804;28;20034;-78
2023/12/23 10:57:05;;;;;;;1.60;0.60;;;;;;;9.78;100.00;100873.56;4983552;28;20083;-78
2023/12/23 10:59:30;;;;;;;1.52;0.65;;;;;;;9.83;100.00;100874.75;5031977;28;20037;-78
2023/12/23 11:01:57;;;;;;;1.63;0.88;;;;;;;9.92;100.00;100862.13;4999613;28;20033;-78
2023/12/23 11:04:24;;;;;;;9.70;1.02;;;;;;;9.97;100.00;100864.31;5016090;28;20033;-78
2023/12/23 11:06:52;;;;;;;0.50;0.50;;;;;;;9.95;100.00;100844.84;5035518;28;20025;-80
2023/12/23 11:09:19;;;;;;;2.35;0.73;;;;;;;9.93;100.00;100836.97;5035881;28;20034;-78
2023/12/23 11:11:45;;;;;;;0.65;0.52;;;;;;;9.95;100.00;100839.47;5036018;28;20480;-79
2023/12/23 11:14:11;;;;;;;3.40;0.95;;;;;;;10.19;100.00;100849.34;5003781;28;20124;-79
2023/12/23 11:16:40;;;;;;;0.57;0.57;;;;;;;10.05;100.00;100851.72;5020125;28;20124;-78
2023/12/23 11:19:26;;;;;;;1.95;0.70;;;;;;;9.95;100.00;100869.03;5030141;28;20138;-79
2023/12/23 11:22:23;;;;;;;3.40;0.70;;;;;;;9.98;100.00;100861.47;5035991;28;20535;-79
2023/12/23 11:25:37;;;;;;;0.65;0.52;;;;;;;10.06;100.00;100848.03;5036296;28;20044;-79
2023/12/23 11:28:10;;;;;;;4.88;0.90;;;;;;;10.05;100.00;100853.56;5019536;28;20065;-79
2023/12/23 11:30:49;;;;;;;1.05;0.60;;;;;;;9.98;100.00;100850.72;5003261;28;20041;-78
2023/12/23 11:33:18;;;;;;;0.60;0.60;;;;;;;9.94;100.00;100838.63;5019049;28;20037;-78